sensor_id;sensor_type;location;lat;lon;timestamp;P1;durP1;ratioP1;P2;durP2;ratioP2
38162;SDS011;23977;53.078;18.248;2022-07-01T03:55:55;16.33;;;12.48;;
38162;SDS011;23977;53.078;18.248;2022-07-01T03:58:45;21.17;;;12.85;;
38162;SDS011;23977;53.078;18.248;2022-07-01T04:01:15;15.48;;;11.73;;
38162;SDS011;23977;53.078;18.248;2022-07-01T04:03:44;23.88;;;11.98;;
38162;SDS011;23977;53.078;18.248;2022-07-01T04:06:12;14.88;;;11.13;;
38162;SDS011;23977;53.078;18.248;2022-07-01T04:08:54;15.05;;;10.90;;
38162;SDS011;23977;53.078;18.248;2022-07-01T04:24:21;15.18;;;10.18;;
38162;SDS011;23977;53.078;18.248;2022-07-01T04:30:13;13.88;;;8.93;;
38162;SDS011;23977;53.078;18.248;2022-07-01T04:32:54;11.57;;;8.48;;
38162;SDS011;23977;53.078;18.248;2022-07-01T04:38:23;13.80;;;8.70;;
38162;SDS011;23977;53.078;18.248;2022-07-01T04:41:08;14.90;;;8.40;;
38162;SDS011;23977;53.078;18.248;2022-07-01T04:43:53;11.60;;;8.30;;
38162;SDS011;23977;53.078;18.248;2022-07-01T04:46:28;11.00;;;8.07;;
38162;SDS011;23977;53.078;18.248;2022-07-01T04:49:04;13.23;;;8.30;;
38162;SDS011;23977;53.078;18.248;2022-07-01T04:51:57;11.32;;;8.27;;
38162;SDS011;23977;53.078;18.248;2022-07-01T04:54:29;13.90;;;8.40;;
38162;SDS011;23977;53.078;18.248;2022-07-01T04:56:59;10.70;;;8.02;;
38162;SDS011;23977;53.078;18.248;2022-07-01T04:59:33;13.05;;;8.48;;
38162;SDS011;23977;53.078;18.248;2022-07-01T05:02:11;11.75;;;8.05;;
38162;SDS011;23977;53.078;18.248;2022-07-01T05:04:50;18.38;;;8.93;;
38162;SDS011;23977;53.078;18.248;2022-07-01T05:07:31;11.75;;;7.90;;
38162;SDS011;23977;53.078;18.248;2022-07-01T05:24:56;11.32;;;7.63;;
38162;SDS011;23977;53.078;18.248;2022-07-01T05:28:47;15.95;;;8.20;;
38162;SDS011;23977;53.078;18.248;2022-07-01T05:38:05;11.60;;;7.93;;
38162;SDS011;23977;53.078;18.248;2022-07-01T05:41:37;14.20;;;8.48;;
38162;SDS011;23977;53.078;18.248;2022-07-01T05:45:00;20.88;;;8.55;;
38162;SDS011;23977;53.078;18.248;2022-07-01T05:50:44;29.67;;;10.15;;
38162;SDS011;23977;53.078;18.248;2022-07-01T05:53:53;22.55;;;8.85;;
38162;SDS011;23977;53.078;18.248;2022-07-01T05:56:22;16.83;;;8.38;;
38162;SDS011;23977;53.078;18.248;2022-07-01T05:58:48;11.85;;;7.80;;
38162;SDS011;23977;53.078;18.248;2022-07-01T06:01:14;14.38;;;7.45;;
38162;SDS011;23977;53.078;18.248;2022-07-01T06:03:40;9.95;;;7.03;;
38162;SDS011;23977;53.078;18.248;2022-07-01T06:06:07;11.43;;;7.55;;
38162;SDS011;23977;53.078;18.248;2022-07-01T06:08:34;14.73;;;8.70;;
38162;SDS011;23977;53.078;18.248;2022-07-01T06:11:00;13.70;;;7.78;;
38162;SDS011;23977;53.078;18.248;2022-07-01T06:13:26;11.60;;;7.68;;
38162;SDS011;23977;53.078;18.248;2022-07-01T06:15:54;13.27;;;7.68;;
38162;SDS011;23977;53.078;18.248;2022-07-01T06:18:24;12.82;;;7.65;;
38162;SDS011;23977;53.078;18.248;2022-07-01T06:20:50;14.68;;;8.02;;
38162;SDS011;23977;53.078;18.248;2022-07-01T06:23:17;15.05;;;9.15;;
38162;SDS011;23977;53.078;18.248;2022-07-01T06:25:44;14.23;;;10.90;;
38162;SDS011;23977;53.078;18.248;2022-07-01T06:28:09;16.00;;;12.20;;
38162;SDS011;23977;53.078;18.248;2022-07-01T06:30:35;11.48;;;8.23;;
38162;SDS011;23977;53.078;18.248;2022-07-01T06:33:03;11.10;;;8.15;;
38162;SDS011;23977;53.078;18.248;2022-07-01T06:35:29;12.65;;;8.95;;
38162;SDS011;23977;53.078;18.248;2022-07-01T06:37:55;13.98;;;9.23;;
38162;SDS011;23977;53.078;18.248;2022-07-01T06:40:21;11.27;;;8.90;;
38162;SDS011;23977;53.078;18.248;2022-07-01T06:42:46;12.93;;;9.25;;
38162;SDS011;23977;53.078;18.248;2022-07-01T06:45:12;16.58;;;9.00;;
38162;SDS011;23977;53.078;18.248;2022-07-01T06:47:40;11.85;;;9.00;;
38162;SDS011;23977;53.078;18.248;2022-07-01T06:50:06;14.15;;;9.07;;
38162;SDS011;23977;53.078;18.248;2022-07-01T06:52:32;12.93;;;9.30;;
38162;SDS011;23977;53.078;18.248;2022-07-01T06:54:57;10.95;;;7.60;;
38162;SDS011;23977;53.078;18.248;2022-07-01T06:57:29;11.45;;;8.07;;
38162;SDS011;23977;53.078;18.248;2022-07-01T07:00:29;14.88;;;10.95;;
38162;SDS011;23977;53.078;18.248;2022-07-01T07:02:56;11.88;;;8.18;;
38162;SDS011;23977;53.078;18.248;2022-07-01T07:05:22;11.45;;;7.72;;
38162;SDS011;23977;53.078;18.248;2022-07-01T07:10:39;12.15;;;7.82;;
38162;SDS011;23977;53.078;18.248;2022-07-01T07:13:07;13.77;;;8.90;;
38162;SDS011;23977;53.078;18.248;2022-07-01T07:15:34;10.60;;;7.75;;
38162;SDS011;23977;53.078;18.248;2022-07-01T07:18:00;11.85;;;7.88;;
38162;SDS011;23977;53.078;18.248;2022-07-01T07:20:26;13.02;;;8.68;;
38162;SDS011;23977;53.078;18.248;2022-07-01T07:22:53;10.68;;;7.28;;
38162;SDS011;23977;53.078;18.248;2022-07-01T07:25:19;14.25;;;7.93;;
38162;SDS011;23977;53.078;18.248;2022-07-01T07:27:45;12.65;;;7.85;;
38162;SDS011;23977;53.078;18.248;2022-07-01T07:30:13;13.55;;;8.70;;
38162;SDS011;23977;53.078;18.248;2022-07-01T07:32:43;9.35;;;7.80;;
38162;SDS011;23977;53.078;18.248;2022-07-01T07:35:09;10.95;;;7.80;;
38162;SDS011;23977;53.078;18.248;2022-07-01T07:37:36;12.13;;;8.50;;
38162;SDS011;23977;53.078;18.248;2022-07-01T07:40:02;14.18;;;9.35;;
38162;SDS011;23977;53.078;18.248;2022-07-01T07:42:31;13.25;;;9.13;;
38162;SDS011;23977;53.078;18.248;2022-07-01T07:45:00;15.18;;;9.57;;
38162;SDS011;23977;53.078;18.248;2022-07-01T07:47:27;13.00;;;8.77;;
38162;SDS011;23977;53.078;18.248;2022-07-01T07:49:56;13.57;;;8.25;;
38162;SDS011;23977;53.078;18.248;2022-07-01T07:52:22;10.90;;;8.52;;
38162;SDS011;23977;53.078;18.248;2022-07-01T07:54:48;10.82;;;8.40;;
38162;SDS011;23977;53.078;18.248;2022-07-01T07:57:15;14.25;;;8.30;;
38162;SDS011;23977;53.078;18.248;2022-07-01T07:59:59;11.48;;;7.63;;
38162;SDS011;23977;53.078;18.248;2022-07-01T08:02:26;11.27;;;8.05;;
38162;SDS011;23977;53.078;18.248;2022-07-01T08:04:55;14.52;;;9.20;;
38162;SDS011;23977;53.078;18.248;2022-07-01T08:07:21;12.68;;;9.45;;
38162;SDS011;23977;53.078;18.248;2022-07-01T08:09:47;12.95;;;8.50;;
38162;SDS011;23977;53.078;18.248;2022-07-01T08:12:16;17.85;;;9.07;;
38162;SDS011;23977;53.078;18.248;2022-07-01T08:14:48;14.85;;;7.95;;
38162;SDS011;23977;53.078;18.248;2022-07-01T08:17:13;12.07;;;8.52;;
38162;SDS011;23977;53.078;18.248;2022-07-01T08:19:39;10.38;;;7.68;;
38162;SDS011;23977;53.078;18.248;2022-07-01T08:22:07;10.73;;;7.53;;
38162;SDS011;23977;53.078;18.248;2022-07-01T08:24:32;15.73;;;8.50;;
38162;SDS011;23977;53.078;18.248;2022-07-01T08:26:58;13.40;;;8.40;;
38162;SDS011;23977;53.078;18.248;2022-07-01T08:29:23;12.93;;;9.73;;
38162;SDS011;23977;53.078;18.248;2022-07-01T08:31:49;34.55;;;29.92;;
38162;SDS011;23977;53.078;18.248;2022-07-01T08:34:15;12.70;;;8.77;;
38162;SDS011;23977;53.078;18.248;2022-07-01T08:36:41;13.77;;;8.30;;
38162;SDS011;23977;53.078;18.248;2022-07-01T08:39:06;20.60;;;9.77;;
38162;SDS011;23977;53.078;18.248;2022-07-01T08:41:32;21.55;;;9.38;;
38162;SDS011;23977;53.078;18.248;2022-07-01T08:43:58;11.57;;;7.85;;
38162;SDS011;23977;53.078;18.248;2022-07-01T08:46:26;10.60;;;8.50;;
38162;SDS011;23977;53.078;18.248;2022-07-01T08:52:25;12.15;;;8.63;;
38162;SDS011;23977;53.078;18.248;2022-07-01T08:55:25;12.15;;;8.93;;
38162;SDS011;23977;53.078;18.248;2022-07-01T09:31:32;13.48;;;9.20;;
38162;SDS011;23977;53.078;18.248;2022-07-01T09:35:15;13.15;;;9.73;;
38162;SDS011;23977;53.078;18.248;2022-07-01T09:42:45;12.50;;;9.75;;
38162;SDS011;23977;53.078;18.248;2022-07-01T09:46:51;13.10;;;9.50;;
38162;SDS011;23977;53.078;18.248;2022-07-01T09:49:34;15.57;;;9.38;;
38162;SDS011;23977;53.078;18.248;2022-07-01T09:53:03;15.25;;;9.95;;
38162;SDS011;23977;53.078;18.248;2022-07-01T09:59:00;12.38;;;8.77;;
38162;SDS011;23977;53.078;18.248;2022-07-01T10:01:29;12.90;;;10.18;;
38162;SDS011;23977;53.078;18.248;2022-07-01T10:04:31;13.50;;;9.10;;
38162;SDS011;23977;53.078;18.248;2022-07-01T10:15:16;12.75;;;9.20;;
38162;SDS011;23977;53.078;18.248;2022-07-01T10:17:45;11.07;;;9.35;;
38162;SDS011;23977;53.078;18.248;2022-07-01T10:20:17;12.82;;;9.27;;
38162;SDS011;23977;53.078;18.248;2022-07-01T10:22:59;13.90;;;9.98;;
38162;SDS011;23977;53.078;18.248;2022-07-01T10:28:15;13.95;;;9.90;;
38162;SDS011;23977;53.078;18.248;2022-07-01T10:30:51;13.43;;;9.82;;
38162;SDS011;23977;53.078;18.248;2022-07-01T10:44:21;14.80;;;9.43;;
38162;SDS011;23977;53.078;18.248;2022-07-01T10:46:52;10.98;;;9.10;;
38162;SDS011;23977;53.078;18.248;2022-07-01T10:52:06;11.38;;;9.25;;
38162;SDS011;23977;53.078;18.248;2022-07-01T11:02:41;13.43;;;8.60;;
38162;SDS011;23977;53.078;18.248;2022-07-01T11:05:15;12.48;;;8.18;;
38162;SDS011;23977;53.078;18.248;2022-07-01T11:07:44;15.35;;;9.30;;
38162;SDS011;23977;53.078;18.248;2022-07-01T11:10:15;12.25;;;8.38;;
38162;SDS011;23977;53.078;18.248;2022-07-01T11:13:02;13.63;;;9.18;;
38162;SDS011;23977;53.078;18.248;2022-07-01T11:15:29;12.35;;;8.40;;
38162;SDS011;23977;53.078;18.248;2022-07-01T11:18:03;12.52;;;9.20;;
38162;SDS011;23977;53.078;18.248;2022-07-01T11:20:35;9.93;;;8.77;;
38162;SDS011;23977;53.078;18.248;2022-07-01T11:23:02;15.07;;;8.82;;
38162;SDS011;23977;53.078;18.248;2022-07-01T11:25:48;10.45;;;8.82;;
38162;SDS011;23977;53.078;18.248;2022-07-01T11:32:23;11.30;;;8.75;;
38162;SDS011;23977;53.078;18.248;2022-07-01T11:35:30;14.00;;;9.15;;
38162;SDS011;23977;53.078;18.248;2022-07-01T11:42:41;11.05;;;9.05;;
38162;SDS011;23977;53.078;18.248;2022-07-01T11:45:23;11.90;;;9.40;;
38162;SDS011;23977;53.078;18.248;2022-07-01T11:47:53;24.88;;;20.08;;
38162;SDS011;23977;53.078;18.248;2022-07-01T11:50:20;28.23;;;24.67;;
38162;SDS011;23977;53.078;18.248;2022-07-01T11:56:29;13.63;;;9.18;;
38162;SDS011;23977;53.078;18.248;2022-07-01T11:59:14;11.88;;;9.95;;
38162;SDS011;23977;53.078;18.248;2022-07-01T12:01:50;13.07;;;9.57;;
38162;SDS011;23977;53.078;18.248;2022-07-01T12:04:31;12.95;;;9.32;;
38162;SDS011;23977;53.078;18.248;2022-07-01T12:06:59;11.88;;;8.98;;
38162;SDS011;23977;53.078;18.248;2022-07-01T12:09:27;11.77;;;9.00;;
38162;SDS011;23977;53.078;18.248;2022-07-01T12:11:56;10.55;;;9.32;;
38162;SDS011;23977;53.078;18.248;2022-07-01T12:15:08;13.82;;;9.13;;
38162;SDS011;23977;53.078;18.248;2022-07-01T12:17:42;13.50;;;8.90;;
38162;SDS011;23977;53.078;18.248;2022-07-01T12:20:15;11.93;;;8.80;;
38162;SDS011;23977;53.078;18.248;2022-07-01T12:23:14;13.25;;;9.27;;
38162;SDS011;23977;53.078;18.248;2022-07-01T12:26:08;12.05;;;8.73;;
38162;SDS011;23977;53.078;18.248;2022-07-01T12:28:39;10.30;;;8.73;;
38162;SDS011;23977;53.078;18.248;2022-07-01T12:31:20;11.52;;;8.43;;
38162;SDS011;23977;53.078;18.248;2022-07-01T12:33:51;12.75;;;8.80;;
38162;SDS011;23977;53.078;18.248;2022-07-01T12:36:46;10.45;;;8.32;;
38162;SDS011;23977;53.078;18.248;2022-07-01T12:39:23;10.25;;;8.20;;
38162;SDS011;23977;53.078;18.248;2022-07-01T12:43:01;10.77;;;8.30;;
38162;SDS011;23977;53.078;18.248;2022-07-01T12:46:11;10.68;;;8.15;;
38162;SDS011;23977;53.078;18.248;2022-07-01T13:16:10;12.07;;;7.07;;
38162;SDS011;23977;53.078;18.248;2022-07-01T13:20:08;8.80;;;6.00;;
38162;SDS011;23977;53.078;18.248;2022-07-01T13:55:25;12.35;;;7.13;;
38162;SDS011;23977;53.078;18.248;2022-07-01T13:59:07;10.32;;;6.70;;
38162;SDS011;23977;53.078;18.248;2022-07-01T14:12:42;10.13;;;6.90;;
38162;SDS011;23977;53.078;18.248;2022-07-01T14:16:00;8.90;;;6.28;;
38162;SDS011;23977;53.078;18.248;2022-07-01T15:18:12;12.32;;;6.30;;
38162;SDS011;23977;53.078;18.248;2022-07-01T15:47:48;11.48;;;7.95;;
38162;SDS011;23977;53.078;18.248;2022-07-01T15:50:34;11.27;;;7.70;;
38162;SDS011;23977;53.078;18.248;2022-07-01T15:53:10;13.75;;;8.77;;
38162;SDS011;23977;53.078;18.248;2022-07-01T15:55:59;12.15;;;8.52;;
38162;SDS011;23977;53.078;18.248;2022-07-01T16:01:09;12.60;;;9.10;;
38162;SDS011;23977;53.078;18.248;2022-07-01T16:28:23;17.63;;;12.95;;
38162;SDS011;23977;53.078;18.248;2022-07-01T16:30:51;19.70;;;15.90;;
38162;SDS011;23977;53.078;18.248;2022-07-01T16:33:16;18.67;;;15.20;;
38162;SDS011;23977;53.078;18.248;2022-07-01T16:35:44;19.50;;;16.00;;
38162;SDS011;23977;53.078;18.248;2022-07-01T16:38:13;20.42;;;16.60;;
38162;SDS011;23977;53.078;18.248;2022-07-01T16:40:44;21.50;;;17.50;;
38162;SDS011;23977;53.078;18.248;2022-07-01T16:43:14;20.25;;;15.38;;
38162;SDS011;23977;53.078;18.248;2022-07-01T16:45:41;20.52;;;16.88;;
38162;SDS011;23977;53.078;18.248;2022-07-01T16:48:15;20.42;;;16.13;;
38162;SDS011;23977;53.078;18.248;2022-07-01T16:50:48;17.88;;;15.98;;
38162;SDS011;23977;53.078;18.248;2022-07-01T16:53:16;21.50;;;17.30;;
38162;SDS011;23977;53.078;18.248;2022-07-01T16:55:42;21.33;;;19.10;;
38162;SDS011;23977;53.078;18.248;2022-07-01T16:58:08;22.13;;;19.83;;
38162;SDS011;23977;53.078;18.248;2022-07-01T17:00:35;23.67;;;18.83;;
38162;SDS011;23977;53.078;18.248;2022-07-01T17:03:03;73.13;;;25.85;;
38162;SDS011;23977;53.078;18.248;2022-07-01T17:05:30;43.30;;;24.58;;
38162;SDS011;23977;53.078;18.248;2022-07-01T17:07:55;38.22;;;23.42;;
38162;SDS011;23977;53.078;18.248;2022-07-01T17:40:17;26.15;;;23.33;;
38162;SDS011;23977;53.078;18.248;2022-07-01T17:42:47;28.90;;;24.63;;
38162;SDS011;23977;53.078;18.248;2022-07-01T17:45:47;28.08;;;25.02;;
38162;SDS011;23977;53.078;18.248;2022-07-01T17:49:31;27.88;;;24.77;;
38162;SDS011;23977;53.078;18.248;2022-07-01T17:52:20;28.65;;;25.50;;
38162;SDS011;23977;53.078;18.248;2022-07-01T17:55:40;27.45;;;24.52;;
38162;SDS011;23977;53.078;18.248;2022-07-01T17:58:32;27.45;;;24.48;;
38162;SDS011;23977;53.078;18.248;2022-07-01T18:00:59;26.52;;;23.80;;
38162;SDS011;23977;53.078;18.248;2022-07-01T18:03:37;47.20;;;41.60;;
38162;SDS011;23977;53.078;18.248;2022-07-01T18:06:13;26.45;;;23.65;;
38162;SDS011;23977;53.078;18.248;2022-07-01T18:09:19;26.42;;;23.08;;
38162;SDS011;23977;53.078;18.248;2022-07-01T18:12:36;26.75;;;23.95;;
38162;SDS011;23977;53.078;18.248;2022-07-01T18:15:25;26.33;;;23.08;;
38162;SDS011;23977;53.078;18.248;2022-07-01T18:17:57;22.30;;;20.00;;
38162;SDS011;23977;53.078;18.248;2022-07-01T18:21:05;23.30;;;20.92;;
38162;SDS011;23977;53.078;18.248;2022-07-01T20:59:36;36.42;;;32.63;;
38162;SDS011;23977;53.078;18.248;2022-07-01T22:07:52;22.92;;;19.80;;
38162;SDS011;23977;53.078;18.248;2022-07-01T22:48:12;21.88;;;19.08;;
38162;SDS011;23977;53.078;18.248;2022-07-01T22:51:15;19.02;;;17.00;;
38162;SDS011;23977;53.078;18.248;2022-07-01T23:17:51;19.60;;;16.05;;
38162;SDS011;23977;53.078;18.248;2022-07-01T23:20:24;18.50;;;16.58;;
